createdAt,value
2022-12-05T00:01:22.372Z,17.13
2022-12-05T00:03:52.438Z,17.63
2022-12-05T00:06:20.909Z,17.70
2022-12-05T00:08:50.563Z,17.05
2022-12-05T00:11:20.531Z,17.73
2022-12-05T00:13:49.317Z,17.42
2022-12-05T00:16:19.799Z,17.53
2022-12-05T00:18:48.300Z,18.77
2022-12-05T00:21:23.761Z,17.27
2022-12-05T00:23:54.059Z,17.65
2022-12-05T00:26:22.880Z,18.38
2022-12-05T00:28:51.219Z,18.08
2022-12-05T00:31:21.256Z,18.10
2022-12-05T00:33:50.059Z,17.85
2022-12-05T00:36:20.121Z,17.42
2022-12-05T00:38:48.420Z,18.17
2022-12-05T00:41:19.732Z,17.93
2022-12-05T00:43:48.060Z,17.88
2022-12-05T00:46:18.476Z,17.52
2022-12-05T00:48:47.016Z,18.63
2022-12-05T00:51:16.931Z,18.13
2022-12-05T00:53:46.091Z,18.33
2022-12-05T00:56:18.725Z,18.52
2022-12-05T00:58:47.034Z,18.20
2022-12-05T01:01:17.405Z,18.13
2022-12-05T01:03:46.769Z,18.30
2022-12-05T01:06:15.666Z,19.30
2022-12-05T01:08:44.158Z,18.23
2022-12-05T01:11:13.046Z,19.10
2022-12-05T01:13:42.210Z,19.10
2022-12-05T01:16:15.455Z,18.75
2022-12-05T01:18:43.349Z,18.63
2022-12-05T01:21:11.615Z,19.27
2022-12-05T01:23:39.457Z,19.83
2022-12-05T01:26:09.362Z,18.50
2022-12-05T01:28:39.658Z,19.17
2022-12-05T01:31:11.180Z,19.53
2022-12-05T01:33:39.113Z,19.33
2022-12-05T01:36:11.854Z,20.25
2022-12-05T01:38:40.837Z,20.40
2022-12-05T01:41:11.899Z,19.05
2022-12-05T01:43:58.670Z,20.63
2022-12-05T01:46:29.575Z,20.40
2022-12-05T01:49:02.803Z,20.98
2022-12-05T01:51:31.681Z,20.00
2022-12-05T01:54:00.420Z,20.20
2022-12-05T01:56:28.457Z,19.52
2022-12-05T01:58:57.531Z,18.90
2022-12-05T02:01:26.786Z,18.30
2022-12-05T02:03:58.739Z,18.73
2022-12-05T02:06:28.735Z,19.15
2022-12-05T02:08:56.875Z,19.40
2022-12-05T02:11:27.923Z,19.35
2022-12-05T02:14:20.572Z,19.17
2022-12-05T02:17:02.347Z,18.73
2022-12-05T02:20:13.398Z,19.38
2022-12-05T02:23:19.720Z,19.52
2022-12-05T02:26:10.424Z,20.13
2022-12-05T02:28:57.308Z,19.50
2022-12-05T02:31:34.990Z,18.67
2022-12-05T02:34:11.555Z,19.23
2022-12-05T02:36:45.299Z,19.08
2022-12-05T02:39:18.223Z,18.70
2022-12-05T02:41:52.050Z,19.02
2022-12-05T02:44:24.435Z,19.10
2022-12-05T02:46:54.845Z,18.70
2022-12-05T02:49:26.529Z,19.60
2022-12-05T02:51:58.515Z,19.37
2022-12-05T02:54:30.450Z,19.50
2022-12-05T02:57:00.389Z,20.25
2022-12-05T02:59:28.398Z,19.73
2022-12-05T03:01:57.748Z,19.40
2022-12-05T03:04:27.414Z,20.17
2022-12-05T03:06:59.860Z,21.05
2022-12-05T03:09:35.162Z,20.98
2022-12-05T03:12:07.858Z,20.30
2022-12-05T03:14:40.197Z,21.40
2022-12-05T03:17:13.517Z,20.95
2022-12-05T03:19:49.373Z,21.08
2022-12-05T03:22:23.204Z,20.67
2022-12-05T03:24:51.062Z,20.20
2022-12-05T03:27:26.413Z,20.20
2022-12-05T03:29:58.313Z,20.40
2022-12-05T03:32:34.330Z,20.25
2022-12-05T03:35:09.094Z,20.85
2022-12-05T03:37:46.261Z,21.80
2022-12-05T03:40:28.615Z,20.52
2022-12-05T03:43:02.653Z,20.65
2022-12-05T03:45:36.901Z,20.97
2022-12-05T03:48:15.057Z,19.58
2022-12-05T03:50:47.321Z,18.23
2022-12-05T03:53:19.938Z,18.15
2022-12-05T03:55:51.901Z,17.93
2022-12-05T03:58:27.129Z,18.45
2022-12-05T04:00:57.401Z,17.38
2022-12-05T04:03:39.335Z,18.17
2022-12-05T04:06:13.063Z,18.73
2022-12-05T04:08:46.092Z,18.42
2022-12-05T04:11:17.961Z,18.20
2022-12-05T04:13:50.404Z,18.73
2022-12-05T04:16:39.068Z,18.30
2022-12-05T04:19:16.093Z,17.40
2022-12-05T04:21:46.757Z,18.87
2022-12-05T04:24:35.396Z,17.60
2022-12-05T04:27:13.496Z,17.90
2022-12-05T04:29:47.004Z,17.70
2022-12-05T04:32:15.443Z,17.75
2022-12-05T04:34:48.714Z,17.52
2022-12-05T04:37:23.030Z,17.67
2022-12-05T04:39:56.725Z,17.90
2022-12-05T04:42:27.798Z,17.83
2022-12-05T04:45:00.149Z,17.55
2022-12-05T04:47:32.157Z,18.00
2022-12-05T04:50:03.479Z,18.38
2022-12-05T04:52:32.625Z,18.58
2022-12-05T04:55:06.675Z,18.77
2022-12-05T04:57:38.018Z,18.73
2022-12-05T05:00:08.691Z,19.40
2022-12-05T05:02:49.073Z,19.43
2022-12-05T05:05:19.952Z,18.33
2022-12-05T05:07:49.860Z,18.50
2022-12-05T05:10:22.213Z,18.50
2022-12-05T05:12:49.970Z,19.70
2022-12-05T05:15:17.894Z,19.42
2022-12-05T05:17:45.684Z,19.83
2022-12-05T05:20:27.002Z,19.80
2022-12-05T05:22:57.982Z,20.45
2022-12-05T05:25:26.293Z,19.77
2022-12-05T05:27:56.225Z,19.33
2022-12-05T05:30:25.324Z,19.37
2022-12-05T05:32:53.910Z,19.35
2022-12-05T05:35:22.462Z,18.88
2022-12-05T05:37:50.319Z,19.25
2022-12-05T05:40:19.792Z,20.00
2022-12-05T05:42:49.490Z,19.88
2022-12-05T05:45:18.425Z,18.95
2022-12-05T05:47:46.433Z,20.25
2022-12-05T05:50:20.913Z,19.67
2022-12-05T05:52:49.551Z,19.80
2022-12-05T05:55:19.063Z,19.03
2022-12-05T05:57:47.219Z,19.02
2022-12-05T06:00:16.073Z,19.67
2022-12-05T06:02:44.000Z,19.17
2022-12-05T06:05:11.874Z,18.42
2022-12-05T06:07:39.732Z,19.48
2022-12-05T06:10:08.753Z,20.27
2022-12-05T06:12:37.896Z,19.38
2022-12-05T06:15:06.788Z,18.33
2022-12-05T06:17:34.574Z,19.50
2022-12-05T06:20:02.380Z,20.10
2022-12-05T06:22:31.157Z,19.23
2022-12-05T06:24:59.499Z,19.48
2022-12-05T06:27:27.466Z,20.98
2022-12-05T06:29:56.853Z,19.92
2022-12-05T06:32:25.010Z,20.42
2022-12-05T06:34:52.797Z,19.73
2022-12-05T06:37:20.574Z,20.13
2022-12-05T06:39:48.370Z,20.70
2022-12-05T06:42:16.146Z,19.52
2022-12-05T06:44:43.911Z,19.67
2022-12-05T06:47:13.058Z,19.88
2022-12-05T06:49:40.807Z,19.73
2022-12-05T06:52:08.803Z,20.55
2022-12-05T06:54:36.964Z,19.73
2022-12-05T06:57:04.896Z,19.55
2022-12-05T06:59:32.722Z,19.92
2022-12-05T07:02:00.518Z,19.77
2022-12-05T07:04:29.661Z,19.35
2022-12-05T07:06:57.813Z,19.73
2022-12-05T07:09:45.644Z,19.77
2022-12-05T07:12:14.976Z,17.98
2022-12-05T07:14:48.201Z,19.63
2022-12-05T07:17:16.712Z,20.60
2022-12-05T07:19:45.874Z,18.98
2022-12-05T07:22:15.951Z,19.58
2022-12-05T07:24:44.605Z,19.00
2022-12-05T07:27:12.730Z,18.52
2022-12-05T07:29:40.704Z,18.05
2022-12-05T07:32:08.665Z,18.80
2022-12-05T07:34:36.524Z,18.33
2022-12-05T07:37:05.712Z,18.13
2022-12-05T07:39:33.484Z,19.25
2022-12-05T07:42:01.239Z,17.83
2022-12-05T07:44:28.995Z,18.60
2022-12-05T07:46:56.771Z,19.10
2022-12-05T07:49:24.506Z,18.05
2022-12-05T07:51:52.778Z,18.37
2022-12-05T07:54:22.071Z,17.17
2022-12-05T07:56:49.870Z,17.25
2022-12-05T07:59:17.638Z,17.95
2022-12-05T08:01:45.509Z,17.30
2022-12-05T08:04:15.522Z,18.45
2022-12-05T08:06:44.208Z,16.70
2022-12-05T08:09:12.244Z,18.63
2022-12-05T08:11:41.888Z,18.20
2022-12-05T08:14:10.118Z,17.13
2022-12-05T08:16:38.327Z,16.98
2022-12-05T08:19:07.752Z,16.35
2022-12-05T08:21:36.293Z,16.30
2022-12-05T08:24:06.634Z,16.02
2022-12-05T08:26:35.547Z,16.50
2022-12-05T08:29:07.228Z,16.93
2022-12-05T08:31:36.831Z,17.70
2022-12-05T08:34:04.602Z,16.85
2022-12-05T08:36:33.323Z,17.80
2022-12-05T08:39:02.640Z,17.27
2022-12-05T08:41:30.977Z,17.45
2022-12-05T08:43:59.998Z,16.88
2022-12-05T08:46:29.253Z,18.02
2022-12-05T08:48:57.200Z,18.03
2022-12-05T08:51:24.990Z,17.83
2022-12-05T08:53:52.772Z,17.20
2022-12-05T08:56:26.505Z,17.92
2022-12-05T08:58:58.425Z,18.27
2022-12-05T09:01:32.123Z,18.50
2022-12-05T09:04:01.466Z,16.83
2022-12-05T09:06:30.104Z,18.63
2022-12-05T09:09:00.203Z,18.02
2022-12-05T09:11:29.981Z,17.02
2022-12-05T09:13:59.302Z,16.87
2022-12-05T09:16:36.539Z,15.98
2022-12-05T09:19:06.216Z,16.27
2022-12-05T09:21:34.043Z,17.13
2022-12-05T09:24:02.561Z,16.95
2022-12-05T09:26:30.928Z,17.50
2022-12-05T09:28:59.185Z,16.85
2022-12-05T09:31:28.120Z,16.25
2022-12-05T09:33:57.578Z,15.93
2022-12-05T09:36:28.472Z,15.75
2022-12-05T09:38:59.972Z,16.50
2022-12-05T09:42:08.645Z,16.52
2022-12-05T09:44:54.011Z,17.63
2022-12-05T09:47:35.494Z,16.77
2022-12-05T09:50:18.170Z,16.90
2022-12-05T09:52:56.358Z,17.15
2022-12-05T09:55:24.211Z,16.40
2022-12-05T09:57:54.922Z,16.60
2022-12-05T10:00:22.937Z,17.17
2022-12-05T10:02:59.485Z,16.52
2022-12-05T10:05:35.768Z,17.50
2022-12-05T10:08:12.332Z,17.60
2022-12-05T10:10:47.705Z,17.48
2022-12-05T10:13:27.432Z,17.20
2022-12-05T10:15:57.805Z,17.65
2022-12-05T10:18:34.727Z,17.42
2022-12-05T10:21:06.506Z,17.67
2022-12-05T10:23:56.933Z,17.13
2022-12-05T10:26:29.305Z,17.27
2022-12-05T10:29:01.771Z,17.30
2022-12-05T10:31:34.510Z,16.77
2022-12-05T10:34:07.130Z,17.08
2022-12-05T10:36:36.377Z,17.02
2022-12-05T10:39:08.397Z,17.25
2022-12-05T10:41:39.305Z,17.02
2022-12-05T10:44:07.130Z,16.38
2022-12-05T10:46:34.957Z,15.70
2022-12-05T10:49:03.493Z,16.20
2022-12-05T10:51:37.071Z,16.08
2022-12-05T10:54:15.966Z,15.23
2022-12-05T10:56:46.090Z,15.75
2022-12-05T10:59:15.563Z,15.63
2022-12-05T11:01:50.849Z,15.60
2022-12-05T11:04:26.382Z,15.13
2022-12-05T11:06:57.755Z,14.75
2022-12-05T11:09:29.495Z,15.05
2022-12-05T11:12:18.934Z,14.65
2022-12-05T11:15:05.902Z,14.65
2022-12-05T11:17:35.844Z,14.20
2022-12-05T11:20:05.394Z,14.82
2022-12-05T11:22:35.265Z,15.00
2022-12-05T11:25:27.317Z,15.02
2022-12-05T11:28:00.791Z,14.40
2022-12-05T11:30:30.560Z,14.03
2022-12-05T11:33:13.556Z,14.45
2022-12-05T11:35:41.713Z,14.73
2022-12-05T11:38:12.413Z,15.00
2022-12-05T11:40:48.838Z,14.90
2022-12-05T11:43:40.930Z,14.87
2022-12-05T11:46:23.622Z,14.68
2022-12-05T11:49:06.262Z,14.63
2022-12-05T11:51:40.115Z,14.63
2022-12-05T11:57:52.215Z,14.23
2022-12-05T12:00:24.034Z,13.73
2022-12-05T12:03:19.034Z,13.35
2022-12-05T12:05:55.966Z,13.00
2022-12-05T12:08:27.536Z,12.80
2022-12-05T12:11:06.852Z,12.15
2022-12-05T12:13:57.442Z,12.93
2022-12-05T12:16:34.914Z,11.60
2022-12-05T12:19:21.217Z,12.10
2022-12-05T12:22:05.478Z,11.70
2022-12-05T12:24:46.193Z,11.73
2022-12-05T12:27:27.900Z,12.30
2022-12-05T12:30:07.921Z,11.68
2022-12-05T12:32:44.021Z,11.95
2022-12-05T12:35:32.261Z,11.57
2022-12-05T12:38:22.730Z,10.93
2022-12-05T12:40:53.974Z,10.05
2022-12-05T12:43:58.854Z,10.48
2022-12-05T12:46:40.295Z,11.27
2022-12-05T12:49:40.881Z,11.15
2022-12-05T12:52:14.595Z,10.23
2022-12-05T12:55:03.872Z,9.65
2022-12-05T12:57:44.219Z,8.65
2022-12-05T13:00:23.229Z,8.37
2022-12-05T13:02:58.677Z,8.65
2022-12-05T13:05:34.360Z,8.98
2022-12-05T13:08:06.585Z,8.05
2022-12-05T13:10:39.376Z,8.02
2022-12-05T13:13:08.819Z,7.30
2022-12-05T13:15:40.883Z,6.93
2022-12-05T13:18:17.847Z,6.70
2022-12-05T13:20:49.645Z,7.22
2022-12-05T13:23:21.566Z,6.63
2022-12-05T13:25:51.125Z,5.90
2022-12-05T13:28:27.935Z,6.63
2022-12-05T13:31:01.532Z,6.30
2022-12-05T13:33:34.494Z,6.70
2022-12-05T13:36:29.092Z,6.00
2022-12-05T13:39:16.477Z,6.13
2022-12-05T13:42:03.397Z,5.47
2022-12-05T13:44:37.123Z,4.60
2022-12-05T13:47:08.150Z,4.50
2022-12-05T13:49:44.859Z,4.30
2022-12-05T13:52:16.485Z,4.50
2022-12-05T13:54:47.461Z,3.92
2022-12-05T13:57:51.788Z,3.85
2022-12-05T14:00:29.370Z,3.60
2022-12-05T14:03:03.145Z,4.15
2022-12-05T14:05:44.896Z,4.30
2022-12-05T14:08:48.495Z,4.07
2022-12-05T14:11:16.609Z,4.32
2022-12-05T14:13:46.114Z,4.32
2022-12-05T14:16:47.635Z,4.15
2022-12-05T14:19:34.737Z,4.70
2022-12-05T14:22:23.987Z,5.40
2022-12-05T14:24:59.253Z,4.63
2022-12-05T14:27:43.495Z,4.72
2022-12-05T14:30:22.424Z,4.55
2022-12-05T14:32:52.139Z,4.70
2022-12-05T14:35:23.513Z,4.95
2022-12-05T14:37:56.371Z,4.60
2022-12-05T14:40:31.360Z,4.70
2022-12-05T14:43:02.542Z,4.15
2022-12-05T14:45:35.513Z,4.40
2022-12-05T14:48:05.311Z,4.67
2022-12-05T14:50:40.646Z,4.60
2022-12-05T14:53:30.122Z,4.55
2022-12-05T14:56:05.729Z,4.55
2022-12-05T14:58:38.297Z,4.80
2022-12-05T15:01:09.989Z,4.40
2022-12-05T15:03:41.300Z,4.30
2022-12-05T15:06:15.763Z,4.43
2022-12-05T15:08:49.413Z,4.80
2022-12-05T15:11:28.214Z,4.40
2022-12-05T15:14:01.092Z,4.80
2022-12-05T15:16:30.249Z,4.50
2022-12-05T15:19:03.686Z,4.47
2022-12-05T15:21:34.915Z,4.93
2022-12-05T15:24:05.734Z,4.78
2022-12-05T15:26:48.263Z,4.72
2022-12-05T15:29:26.403Z,5.15
2022-12-05T15:31:56.060Z,5.43
2022-12-05T15:34:30.625Z,5.73
2022-12-05T15:37:02.989Z,5.18
2022-12-05T15:39:51.790Z,5.57
2022-12-05T15:42:23.552Z,5.40
2022-12-05T15:44:53.962Z,5.40
2022-12-05T15:47:23.443Z,5.30
2022-12-05T15:49:52.024Z,5.43
2022-12-05T15:52:29.516Z,5.38
2022-12-05T15:55:03.942Z,4.85
2022-12-05T15:57:38.835Z,5.50
2022-12-05T16:00:08.752Z,5.63
2022-12-05T16:02:43.097Z,5.68
2022-12-05T16:05:22.969Z,4.90
2022-12-05T16:07:53.433Z,5.20
2022-12-05T16:10:29.291Z,5.00
2022-12-05T16:13:03.181Z,5.97
2022-12-05T16:15:31.013Z,5.38
2022-12-05T16:18:01.879Z,5.07
2022-12-05T16:20:32.399Z,5.18
2022-12-05T16:23:04.418Z,5.60
2022-12-05T16:25:35.249Z,5.30
2022-12-05T16:28:14.998Z,5.15
2022-12-05T16:30:53.319Z,5.60
2022-12-05T16:33:21.529Z,5.40
2022-12-05T16:35:50.229Z,5.43
2022-12-05T16:38:21.625Z,5.70
2022-12-05T16:40:56.935Z,5.68
2022-12-05T16:43:29.011Z,5.45
2022-12-05T16:45:58.996Z,5.75
2022-12-05T16:48:28.069Z,5.22
2022-12-05T16:51:18.183Z,5.00
2022-12-05T16:53:47.788Z,5.35
2022-12-05T16:56:21.381Z,5.43
2022-12-05T16:58:49.302Z,5.23
2022-12-05T17:01:20.591Z,5.80
2022-12-05T17:03:48.639Z,5.28
2022-12-05T17:06:18.210Z,5.90
2022-12-05T17:08:45.980Z,5.37
2022-12-05T17:11:18.545Z,5.30
2022-12-05T17:13:48.302Z,5.20
2022-12-05T17:16:16.788Z,5.30
2022-12-05T17:18:44.660Z,5.65
2022-12-05T17:21:15.967Z,4.65
2022-12-05T17:23:47.824Z,4.97
2022-12-05T17:26:20.809Z,4.70
2022-12-05T17:28:49.101Z,4.20
2022-12-05T17:31:19.801Z,4.00
2022-12-05T17:33:48.793Z,4.35
2022-12-05T17:36:17.187Z,4.25
2022-12-05T17:38:45.582Z,3.83
2022-12-05T17:41:18.448Z,3.67
2022-12-05T17:43:46.830Z,3.63
2022-12-05T17:46:18.803Z,3.78
2022-12-05T17:48:46.930Z,3.67
2022-12-05T17:51:15.517Z,3.70
2022-12-05T17:53:45.363Z,3.63
2022-12-05T17:56:13.305Z,4.32
2022-12-05T17:58:42.962Z,3.70
2022-12-05T18:01:15.404Z,3.60
2022-12-05T18:03:43.482Z,3.60
2022-12-05T18:06:11.381Z,3.63
2022-12-05T18:08:40.056Z,3.88
2022-12-05T18:11:08.429Z,3.55
2022-12-05T18:13:36.349Z,3.60
2022-12-05T18:16:06.120Z,3.80
2022-12-05T18:18:33.961Z,4.10
2022-12-05T18:21:06.344Z,4.13
2022-12-05T18:23:36.249Z,4.50
2022-12-05T18:26:04.529Z,4.50
2022-12-05T18:28:32.401Z,4.25
2022-12-05T18:31:12.077Z,4.20
2022-12-05T18:33:40.492Z,4.38
2022-12-05T18:36:10.237Z,4.30
2022-12-05T18:38:38.536Z,4.50
2022-12-05T18:41:07.682Z,4.20
2022-12-05T18:43:35.776Z,4.40
2022-12-05T18:46:05.220Z,4.60
2022-12-05T18:48:41.649Z,4.50
2022-12-05T18:51:13.515Z,4.53
2022-12-05T18:53:41.813Z,4.35
2022-12-05T18:56:22.017Z,4.32
2022-12-05T18:58:54.348Z,4.80
2022-12-05T19:01:22.194Z,7.72
2022-12-05T19:03:51.785Z,4.40
2022-12-05T19:06:22.901Z,4.18
2022-12-05T19:08:53.826Z,4.40
2022-12-05T19:11:22.230Z,4.57
2022-12-05T19:13:50.029Z,4.78
2022-12-05T19:16:18.398Z,4.28
2022-12-05T19:18:47.148Z,4.57
2022-12-05T19:21:16.495Z,4.55
2022-12-05T19:23:44.310Z,4.72
2022-12-05T19:26:12.120Z,4.80
2022-12-05T19:28:40.001Z,4.97
2022-12-05T19:31:09.401Z,4.25
2022-12-05T19:33:40.221Z,3.72
2022-12-05T19:36:11.384Z,3.97
2022-12-05T19:38:41.454Z,4.20
2022-12-05T19:41:11.005Z,4.15
2022-12-05T19:43:39.270Z,3.67
2022-12-05T19:46:08.884Z,3.83
2022-12-05T19:48:36.789Z,3.65
2022-12-05T19:51:05.084Z,3.50
2022-12-05T19:53:35.099Z,3.50
2022-12-05T19:56:06.440Z,3.30
2022-12-05T19:58:34.708Z,3.03
2022-12-05T20:01:08.989Z,3.15
2022-12-05T20:03:36.948Z,3.13
2022-12-05T20:06:05.244Z,3.25
2022-12-05T20:08:33.082Z,3.45
2022-12-05T20:11:06.585Z,3.70
2022-12-05T20:13:46.441Z,4.00
2022-12-05T20:16:16.575Z,3.70
2022-12-05T20:18:44.599Z,3.90
2022-12-05T20:21:15.299Z,3.40
2022-12-05T20:23:43.573Z,3.60
2022-12-05T20:26:14.317Z,3.55
2022-12-05T20:28:42.727Z,3.40
2022-12-05T20:31:13.136Z,3.40
2022-12-05T20:33:42.009Z,3.50
2022-12-05T20:36:12.313Z,3.55
2022-12-05T20:38:40.393Z,3.85
2022-12-05T20:41:10.969Z,3.72
2022-12-05T20:43:40.075Z,3.67
2022-12-05T20:46:10.018Z,3.88
2022-12-05T20:48:38.310Z,4.40
2022-12-05T20:51:07.138Z,4.60
2022-12-05T20:53:35.889Z,4.18
2022-12-05T20:56:05.096Z,4.65
2022-12-05T20:58:33.722Z,4.70
2022-12-05T21:01:04.452Z,4.55
2022-12-05T21:03:32.531Z,4.97
2022-12-05T21:06:00.819Z,4.75
2022-12-05T21:08:28.588Z,4.72
2022-12-05T21:10:56.342Z,4.70
2022-12-05T21:13:24.157Z,5.40
2022-12-05T21:15:51.935Z,4.97
2022-12-05T21:18:21.189Z,5.03
2022-12-05T21:20:57.458Z,5.20
2022-12-05T21:23:25.568Z,4.93
2022-12-05T21:25:53.608Z,4.95
2022-12-05T21:28:21.581Z,4.57
2022-12-05T21:30:49.496Z,4.50
2022-12-05T21:33:17.253Z,4.87
2022-12-05T21:35:54.894Z,4.80
2022-12-05T21:38:22.697Z,4.32
2022-12-05T21:40:50.449Z,4.60
2022-12-05T21:43:18.226Z,4.63
2022-12-05T21:45:51.587Z,4.90
2022-12-05T21:48:21.102Z,4.38
2022-12-05T21:50:50.814Z,4.70
2022-12-05T21:53:19.746Z,4.88
2022-12-05T21:55:47.920Z,4.70
2022-12-05T21:58:15.855Z,4.80
2022-12-05T22:00:43.672Z,4.40
2022-12-05T22:03:15.056Z,4.30
2022-12-05T22:05:42.931Z,4.80
2022-12-05T22:08:12.665Z,4.40
2022-12-05T22:10:40.494Z,4.78
2022-12-05T22:13:08.415Z,4.10
2022-12-05T22:15:36.246Z,4.78
2022-12-05T22:18:04.227Z,4.43
2022-12-05T22:20:32.062Z,4.40
2022-12-05T22:22:59.833Z,4.35
2022-12-05T22:25:28.954Z,4.53
2022-12-05T22:27:56.817Z,4.00
2022-12-05T22:30:24.721Z,3.97
2022-12-05T22:32:54.312Z,4.63
2022-12-05T22:35:22.052Z,3.97
2022-12-05T22:37:49.805Z,4.57
2022-12-05T22:40:17.793Z,3.97
2022-12-05T22:42:46.895Z,4.68
2022-12-05T22:45:14.726Z,4.53
2022-12-05T22:47:42.549Z,4.47
2022-12-05T22:50:10.929Z,4.40
2022-12-05T22:52:38.850Z,4.88
2022-12-05T22:55:07.600Z,5.05
2022-12-05T22:57:35.380Z,4.32
2022-12-05T23:00:06.463Z,5.07
2022-12-05T23:02:34.274Z,4.63
2022-12-05T23:05:02.037Z,4.30
2022-12-05T23:07:29.803Z,4.15
2022-12-05T23:09:58.250Z,4.88
2022-12-05T23:12:26.195Z,5.07
2022-12-05T23:14:53.978Z,5.73
2022-12-05T23:17:23.115Z,5.43
2022-12-05T23:19:50.884Z,5.20
2022-12-05T23:22:18.751Z,5.72
2022-12-05T23:24:46.561Z,5.60
2022-12-05T23:27:18.517Z,5.18
2022-12-05T23:29:46.326Z,5.57
2022-12-05T23:32:14.199Z,5.20
2022-12-05T23:34:43.350Z,5.95
2022-12-05T23:37:11.267Z,5.85
2022-12-05T23:39:39.040Z,6.07
2022-12-05T23:42:12.169Z,6.20
2022-12-05T23:44:42.805Z,5.80
2022-12-05T23:47:10.785Z,6.30
2022-12-05T23:49:38.605Z,7.00
2022-12-05T23:52:07.830Z,5.95
2022-12-05T23:54:35.990Z,6.47
2022-12-05T23:57:03.968Z,6.60
2022-12-05T23:59:31.826Z,6.43
